sensor_id;sensor_type;location;lat;lon;timestamp;pressure;altitude;pressure_sealevel;temperature;humidity
65614;BME280;52283;49.292;10.572;2023-11-21T00:00:23;95875.00;;;6.73;100.00
65614;BME280;52283;49.292;10.572;2023-11-21T00:02:50;95864.38;;;6.72;100.00
65614;BME280;52283;49.292;10.572;2023-11-21T00:05:17;95866.41;;;6.71;100.00
65614;BME280;52283;49.292;10.572;2023-11-21T00:07:44;95866.63;;;6.68;100.00
65614;BME280;52283;49.292;10.572;2023-11-21T00:10:11;95865.69;;;6.77;100.00
65614;BME280;52283;49.292;10.572;2023-11-21T00:12:39;95858.78;;;6.66;100.00
65614;BME280;52283;49.292;10.572;2023-11-21T00:15:07;95862.78;;;6.65;100.00
65614;BME280;52283;49.292;10.572;2023-11-21T00:17:36;95857.25;;;6.65;100.00
65614;BME280;52283;49.292;10.572;2023-11-21T00:20:03;95857.16;;;6.54;100.00
65614;BME280;52283;49.292;10.572;2023-11-21T00:22:33;95858.97;;;6.63;100.00
65614;BME280;52283;49.292;10.572;2023-11-21T00:24:59;95861.56;;;6.66;100.00
65614;BME280;52283;49.292;10.572;2023-11-21T00:27:26;95860.88;;;6.77;100.00
65614;BME280;52283;49.292;10.572;2023-11-21T00:29:52;95860.56;;;6.69;100.00
65614;BME280;52283;49.292;10.572;2023-11-21T00:32:19;95859.53;;;6.67;100.00
65614;BME280;52283;49.292;10.572;2023-11-21T00:34:45;95852.56;;;6.77;100.00
65614;BME280;52283;49.292;10.572;2023-11-21T00:37:12;95850.75;;;6.74;100.00
65614;BME280;52283;49.292;10.572;2023-11-21T00:39:39;95853.84;;;6.82;100.00
65614;BME280;52283;49.292;10.572;2023-11-21T00:42:06;95853.63;;;6.85;100.00
65614;BME280;52283;49.292;10.572;2023-11-21T00:44:33;95848.81;;;6.86;100.00
65614;BME280;52283;49.292;10.572;2023-11-21T00:47:00;95856.88;;;6.84;100.00
65614;BME280;52283;49.292;10.572;2023-11-21T00:49:28;95851.88;;;6.88;100.00
65614;BME280;52283;49.292;10.572;2023-11-21T00:51:54;95855.72;;;6.96;100.00
65614;BME280;52283;49.292;10.572;2023-11-21T00:54:23;95857.66;;;6.84;100.00
65614;BME280;52283;49.292;10.572;2023-11-21T00:56:51;95857.50;;;6.99;100.00
65614;BME280;52283;49.292;10.572;2023-11-21T00:59:17;95858.00;;;6.97;100.00
65614;BME280;52283;49.292;10.572;2023-11-21T01:01:43;95859.53;;;6.98;100.00
65614;BME280;52283;49.292;10.572;2023-11-21T01:04:10;95861.75;;;6.89;100.00
65614;BME280;52283;49.292;10.572;2023-11-21T01:06:37;95867.81;;;6.93;100.00
65614;BME280;52283;49.292;10.572;2023-11-21T01:09:04;95866.56;;;6.94;100.00
65614;BME280;52283;49.292;10.572;2023-11-21T01:11:33;95864.81;;;6.96;100.00
65614;BME280;52283;49.292;10.572;2023-11-21T01:14:02;95864.56;;;6.94;100.00
65614;BME280;52283;49.292;10.572;2023-11-21T01:16:29;95872.66;;;6.98;100.00
65614;BME280;52283;49.292;10.572;2023-11-21T01:18:57;95867.56;;;6.91;100.00
65614;BME280;52283;49.292;10.572;2023-11-21T01:21:24;95864.91;;;6.76;100.00
65614;BME280;52283;49.292;10.572;2023-11-21T01:23:50;95865.44;;;6.80;100.00
65614;BME280;52283;49.292;10.572;2023-11-21T01:26:17;95864.19;;;6.81;100.00
65614;BME280;52283;49.292;10.572;2023-11-21T01:28:43;95861.38;;;6.76;100.00
65614;BME280;52283;49.292;10.572;2023-11-21T01:31:11;95863.97;;;6.85;100.00
65614;BME280;52283;49.292;10.572;2023-11-21T01:33:38;95866.75;;;6.85;100.00
65614;BME280;52283;49.292;10.572;2023-11-21T01:36:05;95862.28;;;6.93;100.00
65614;BME280;52283;49.292;10.572;2023-11-21T01:38:31;95860.88;;;6.77;100.00
65614;BME280;52283;49.292;10.572;2023-11-21T01:40:58;95859.84;;;6.75;100.00
65614;BME280;52283;49.292;10.572;2023-11-21T01:43:26;95857.88;;;6.81;100.00
65614;BME280;52283;49.292;10.572;2023-11-21T01:45:53;95858.63;;;6.81;100.00
65614;BME280;52283;49.292;10.572;2023-11-21T01:48:23;95851.47;;;6.69;100.00
65614;BME280;52283;49.292;10.572;2023-11-21T01:50:50;95848.22;;;6.70;100.00
65614;BME280;52283;49.292;10.572;2023-11-21T01:53:17;95845.25;;;6.80;100.00
65614;BME280;52283;49.292;10.572;2023-11-21T01:55:45;95843.19;;;6.75;100.00
65614;BME280;52283;49.292;10.572;2023-11-21T01:58:12;95851.88;;;6.56;100.00
65614;BME280;52283;49.292;10.572;2023-11-21T02:00:39;95848.72;;;6.69;100.00
65614;BME280;52283;49.292;10.572;2023-11-21T02:03:06;95853.53;;;6.74;100.00
65614;BME280;52283;49.292;10.572;2023-11-21T02:05:34;95857.84;;;6.75;100.00
65614;BME280;52283;49.292;10.572;2023-11-21T02:08:01;95854.56;;;6.77;100.00
65614;BME280;52283;49.292;10.572;2023-11-21T02:10:28;95856.94;;;6.89;100.00
65614;BME280;52283;49.292;10.572;2023-11-21T02:12:56;95852.41;;;6.92;100.00
65614;BME280;52283;49.292;10.572;2023-11-21T02:15:23;95853.63;;;6.85;100.00
65614;BME280;52283;49.292;10.572;2023-11-21T02:17:54;95856.06;;;6.72;100.00
65614;BME280;52283;49.292;10.572;2023-11-21T02:20:21;95861.38;;;6.76;100.00
65614;BME280;52283;49.292;10.572;2023-11-21T02:22:52;95860.00;;;6.65;100.00
65614;BME280;52283;49.292;10.572;2023-11-21T02:25:23;95860.50;;;6.64;100.00
65614;BME280;52283;49.292;10.572;2023-11-21T02:27:49;95851.88;;;6.56;100.00
65614;BME280;52283;49.292;10.572;2023-11-21T02:30:16;95857.72;;;6.64;100.00
65614;BME280;52283;49.292;10.572;2023-11-21T02:32:45;95860.25;;;6.62;100.00
65614;BME280;52283;49.292;10.572;2023-11-21T02:35:11;95854.19;;;6.63;100.00
65614;BME280;52283;49.292;10.572;2023-11-21T02:37:38;95848.59;;;6.58;100.00
65614;BME280;52283;49.292;10.572;2023-11-21T02:40:09;95850.63;;;6.57;100.00
65614;BME280;52283;49.292;10.572;2023-11-21T02:42:37;95840.03;;;6.61;100.00
65614;BME280;52283;49.292;10.572;2023-11-21T02:45:05;95845.16;;;6.68;100.00
65614;BME280;52283;49.292;10.572;2023-11-21T02:47:32;95845.47;;;6.76;100.00
65614;BME280;52283;49.292;10.572;2023-11-21T02:49:58;95840.88;;;6.67;100.00
65614;BME280;52283;49.292;10.572;2023-11-21T02:52:25;95834.63;;;6.47;100.00
65614;BME280;52283;49.292;10.572;2023-11-21T02:54:52;95832.44;;;6.56;100.00
65614;BME280;52283;49.292;10.572;2023-11-21T02:57:20;95833.91;;;6.52;100.00
65614;BME280;52283;49.292;10.572;2023-11-21T02:59:46;95835.59;;;6.69;100.00
65614;BME280;52283;49.292;10.572;2023-11-21T03:02:12;95831.22;;;6.63;100.00
65614;BME280;52283;49.292;10.572;2023-11-21T03:04:41;95832.88;;;6.49;100.00
65614;BME280;52283;49.292;10.572;2023-11-21T03:07:08;95833.50;;;6.64;100.00
65614;BME280;52283;49.292;10.572;2023-11-21T03:09:35;95834.06;;;6.68;100.00
65614;BME280;52283;49.292;10.572;2023-11-21T03:12:02;95836.34;;;6.70;100.00
65614;BME280;52283;49.292;10.572;2023-11-21T03:14:30;95829.28;;;6.69;100.00
65614;BME280;52283;49.292;10.572;2023-11-21T03:16:57;95832.31;;;6.71;100.00
65614;BME280;52283;49.292;10.572;2023-11-21T03:19:23;95838.41;;;6.75;100.00
65614;BME280;52283;49.292;10.572;2023-11-21T03:21:50;95833.06;;;6.71;100.00
65614;BME280;52283;49.292;10.572;2023-11-21T03:24:18;95833.09;;;6.77;100.00
65614;BME280;52283;49.292;10.572;2023-11-21T03:26:45;95832.53;;;6.67;100.00
65614;BME280;52283;49.292;10.572;2023-11-21T03:29:12;95839.06;;;6.64;100.00
65614;BME280;52283;49.292;10.572;2023-11-21T03:31:40;95841.25;;;6.55;100.00
65614;BME280;52283;49.292;10.572;2023-11-21T03:34:06;95839.50;;;6.57;100.00
65614;BME280;52283;49.292;10.572;2023-11-21T03:36:33;95835.47;;;6.58;100.00
65614;BME280;52283;49.292;10.572;2023-11-21T03:38:59;95829.00;;;6.67;100.00
65614;BME280;52283;49.292;10.572;2023-11-21T03:41:25;95835.44;;;6.53;100.00
65614;BME280;52283;49.292;10.572;2023-11-21T03:43:52;95832.97;;;6.60;100.00
65614;BME280;52283;49.292;10.572;2023-11-21T03:46:18;95833.56;;;6.70;100.00
65614;BME280;52283;49.292;10.572;2023-11-21T03:48:46;95843.34;;;6.65;100.00
65614;BME280;52283;49.292;10.572;2023-11-21T03:51:13;95845.25;;;6.80;100.00
65614;BME280;52283;49.292;10.572;2023-11-21T03:53:39;95843.22;;;6.80;100.00
65614;BME280;52283;49.292;10.572;2023-11-21T03:56:06;95844.09;;;6.92;100.00
65614;BME280;52283;49.292;10.572;2023-11-21T03:58:33;95843.56;;;6.88;100.00
65614;BME280;52283;49.292;10.572;2023-11-21T04:00:59;95846.41;;;6.99;100.00
65614;BME280;52283;49.292;10.572;2023-11-21T04:03:26;95850.56;;;6.52;100.00
65614;BME280;52283;49.292;10.572;2023-11-21T04:05:54;95846.13;;;6.65;100.00
65614;BME280;52283;49.292;10.572;2023-11-21T04:08:21;95850.19;;;7.01;100.00
65614;BME280;52283;49.292;10.572;2023-11-21T04:10:47;95852.16;;;6.90;100.00
65614;BME280;52283;49.292;10.572;2023-11-21T04:13:14;95849.94;;;6.99;100.00
65614;BME280;52283;49.292;10.572;2023-11-21T04:15:41;95850.38;;;6.61;100.00
65614;BME280;52283;49.292;10.572;2023-11-21T04:18:07;95847.09;;;6.88;100.00
65614;BME280;52283;49.292;10.572;2023-11-21T04:20:34;95847.28;;;6.85;100.00
65614;BME280;52283;49.292;10.572;2023-11-21T04:23:02;95840.94;;;6.79;100.00
65614;BME280;52283;49.292;10.572;2023-11-21T04:25:29;95847.03;;;6.83;100.00
65614;BME280;52283;49.292;10.572;2023-11-21T04:27:55;95849.81;;;6.83;100.00
65614;BME280;52283;49.292;10.572;2023-11-21T04:30:22;95848.81;;;6.86;100.00
65614;BME280;52283;49.292;10.572;2023-11-21T04:32:48;95860.63;;;6.75;100.00
65614;BME280;52283;49.292;10.572;2023-11-21T04:35:16;95853.22;;;6.66;100.00
65614;BME280;52283;49.292;10.572;2023-11-21T04:37:42;95860.34;;;6.73;100.00
65614;BME280;52283;49.292;10.572;2023-11-21T04:40:11;95852.34;;;6.86;100.00
65614;BME280;52283;49.292;10.572;2023-11-21T04:42:38;95849.38;;;6.90;100.00
65614;BME280;52283;49.292;10.572;2023-11-21T04:45:05;95858.28;;;6.99;100.00
65614;BME280;52283;49.292;10.572;2023-11-21T04:47:34;95849.56;;;6.86;100.00
65614;BME280;52283;49.292;10.572;2023-11-21T04:50:01;95859.72;;;6.89;100.00
65614;BME280;52283;49.292;10.572;2023-11-21T04:52:29;95860.69;;;6.86;100.00
65614;BME280;52283;49.292;10.572;2023-11-21T04:54:55;95870.25;;;6.80;100.00
65614;BME280;52283;49.292;10.572;2023-11-21T04:57:24;95863.94;;;6.79;100.00
65614;BME280;52283;49.292;10.572;2023-11-21T04:59:51;95874.31;;;6.84;100.00
65614;BME280;52283;49.292;10.572;2023-11-21T05:02:18;95870.50;;;6.82;100.00
65614;BME280;52283;49.292;10.572;2023-11-21T05:04:46;95875.84;;;6.85;100.00
65614;BME280;52283;49.292;10.572;2023-11-21T05:07:12;95877.09;;;6.84;100.00
65614;BME280;52283;49.292;10.572;2023-11-21T05:09:41;95874.88;;;6.88;100.00
65614;BME280;52283;49.292;10.572;2023-11-21T05:12:09;95870.56;;;6.87;100.00
65614;BME280;52283;49.292;10.572;2023-11-21T05:14:37;95885.41;;;6.84;100.00
65614;BME280;52283;49.292;10.572;2023-11-21T05:17:03;95883.66;;;6.87;100.00
65614;BME280;52283;49.292;10.572;2023-11-21T05:19:30;95881.31;;;6.74;100.00
65614;BME280;52283;49.292;10.572;2023-11-21T05:21:58;95879.59;;;6.82;100.00
65614;BME280;52283;49.292;10.572;2023-11-21T05:24:25;95884.13;;;6.80;100.00
65614;BME280;52283;49.292;10.572;2023-11-21T05:26:52;95884.00;;;6.94;100.00
65614;BME280;52283;49.292;10.572;2023-11-21T05:29:18;95886.28;;;6.96;100.00
65614;BME280;52283;49.292;10.572;2023-11-21T05:31:46;95888.56;;;6.97;100.00
65614;BME280;52283;49.292;10.572;2023-11-21T05:34:13;95892.09;;;6.98;100.00
65614;BME280;52283;49.292;10.572;2023-11-21T05:36:40;95893.31;;;6.91;100.00
65614;BME280;52283;49.292;10.572;2023-11-21T05:39:06;95898.28;;;6.82;100.00
65614;BME280;52283;49.292;10.572;2023-11-21T05:41:33;95896.22;;;6.77;100.00
65614;BME280;52283;49.292;10.572;2023-11-21T05:43:59;95896.00;;;6.80;100.00
65614;BME280;52283;49.292;10.572;2023-11-21T05:46:27;95893.94;;;6.75;100.00
65614;BME280;52283;49.292;10.572;2023-11-21T05:48:55;95893.13;;;6.69;100.00
65614;BME280;52283;49.292;10.572;2023-11-21T05:51:22;95893.44;;;6.77;100.00
65614;BME280;52283;49.292;10.572;2023-11-21T05:53:50;95891.66;;;6.73;100.00
65614;BME280;52283;49.292;10.572;2023-11-21T05:56:16;95895.56;;;6.61;100.00
65614;BME280;52283;49.292;10.572;2023-11-21T05:58:43;95894.28;;;6.57;100.00
65614;BME280;52283;49.292;10.572;2023-11-21T06:01:09;95894.28;;;6.57;100.00
65614;BME280;52283;49.292;10.572;2023-11-21T06:03:38;95898.84;;;6.60;100.00
65614;BME280;52283;49.292;10.572;2023-11-21T06:06:06;95895.53;;;6.56;100.00
65614;BME280;52283;49.292;10.572;2023-11-21T06:08:33;95908.59;;;6.50;100.00
65614;BME280;52283;49.292;10.572;2023-11-21T06:10:59;95909.78;;;6.43;100.00
65614;BME280;52283;49.292;10.572;2023-11-21T06:13:26;95912.66;;;6.54;100.00
65614;BME280;52283;49.292;10.572;2023-11-21T06:15:53;95906.63;;;6.56;100.00
65614;BME280;52283;49.292;10.572;2023-11-21T06:18:20;95915.44;;;6.54;100.00
65614;BME280;52283;49.292;10.572;2023-11-21T06:20:46;95916.91;;;6.50;100.00
65614;BME280;52283;49.292;10.572;2023-11-21T06:23:14;95914.97;;;6.56;100.00
65614;BME280;52283;49.292;10.572;2023-11-21T06:25:41;95922.03;;;6.57;100.00
65614;BME280;52283;49.292;10.572;2023-11-21T06:28:08;95923.34;;;6.61;100.00
65614;BME280;52283;49.292;10.572;2023-11-21T06:30:34;95929.28;;;6.75;100.00
65614;BME280;52283;49.292;10.572;2023-11-21T06:33:01;95920.22;;;6.80;100.00
65614;BME280;52283;49.292;10.572;2023-11-21T06:35:27;95925.56;;;6.83;100.00
65614;BME280;52283;49.292;10.572;2023-11-21T06:37:55;95941.53;;;6.88;100.00
65614;BME280;52283;49.292;10.572;2023-11-21T06:40:23;95934.91;;;6.86;100.00
65614;BME280;52283;49.292;10.572;2023-11-21T06:42:50;95933.13;;;6.83;100.00
65614;BME280;52283;49.292;10.572;2023-11-21T06:45:17;95941.19;;;6.81;100.00
65614;BME280;52283;49.292;10.572;2023-11-21T06:47:43;95934.66;;;6.84;100.00
65614;BME280;52283;49.292;10.572;2023-11-21T06:50:10;95942.78;;;6.87;100.00
65614;BME280;52283;49.292;10.572;2023-11-21T06:52:37;95944.47;;;6.79;100.00
65614;BME280;52283;49.292;10.572;2023-11-21T06:55:04;95941.22;;;6.86;100.00
65614;BME280;52283;49.292;10.572;2023-11-21T06:57:34;95944.91;;;7.03;100.00
65614;BME280;52283;49.292;10.572;2023-11-21T07:00:01;95949.47;;;6.75;100.00
65614;BME280;52283;49.292;10.572;2023-11-21T07:02:28;95955.94;;;6.92;100.00
65614;BME280;52283;49.292;10.572;2023-11-21T07:04:54;95955.28;;;7.03;100.00
65614;BME280;52283;49.292;10.572;2023-11-21T07:07:21;95961.31;;;7.01;100.00
65614;BME280;52283;49.292;10.572;2023-11-21T07:09:47;95958.91;;;7.15;100.00
65614;BME280;52283;49.292;10.572;2023-11-21T07:12:14;95973.13;;;7.22;100.00
65614;BME280;52283;49.292;10.572;2023-11-21T07:14:42;95969.84;;;7.24;100.00
65614;BME280;52283;49.292;10.572;2023-11-21T07:17:10;95978.94;;;7.24;100.00
65614;BME280;52283;49.292;10.572;2023-11-21T07:19:37;95988.59;;;7.29;100.00
65614;BME280;52283;49.292;10.572;2023-11-21T07:22:03;95990.69;;;7.40;100.00
65614;BME280;52283;49.292;10.572;2023-11-21T07:24:31;95989.72;;;7.43;100.00
65614;BME280;52283;49.292;10.572;2023-11-21T07:26:57;95995.56;;;6.87;100.00
65614;BME280;52283;49.292;10.572;2023-11-21T07:29:24;95989.75;;;7.17;100.00
65614;BME280;52283;49.292;10.572;2023-11-21T07:31:53;95991.47;;;7.40;100.00
65614;BME280;52283;49.292;10.572;2023-11-21T07:34:19;95993.47;;;7.40;100.00
65614;BME280;52283;49.292;10.572;2023-11-21T07:36:46;96002.88;;;7.48;100.00
65614;BME280;52283;49.292;10.572;2023-11-21T07:39:12;96004.69;;;7.51;100.00
65614;BME280;52283;49.292;10.572;2023-11-21T07:41:40;96016.59;;;7.51;100.00
65614;BME280;52283;49.292;10.572;2023-11-21T07:44:14;96005.25;;;7.60;100.00
65614;BME280;52283;49.292;10.572;2023-11-21T07:46:41;96010.72;;;7.49;100.00
65614;BME280;52283;49.292;10.572;2023-11-21T07:49:08;96018.94;;;7.32;100.00
65614;BME280;52283;49.292;10.572;2023-11-21T07:51:35;96015.44;;;7.38;100.00
65614;BME280;52283;49.292;10.572;2023-11-21T07:54:01;96016.59;;;7.51;100.00
65614;BME280;52283;49.292;10.572;2023-11-21T07:56:28;96012.53;;;7.52;100.00
65614;BME280;52283;49.292;10.572;2023-11-21T07:58:54;96021.81;;;7.44;100.00
65614;BME280;52283;49.292;10.572;2023-11-21T08:01:21;96023.59;;;7.47;100.00
65614;BME280;52283;49.292;10.572;2023-11-21T08:03:47;96012.44;;;7.41;100.00
65614;BME280;52283;49.292;10.572;2023-11-21T08:06:18;96013.16;;;7.36;100.00
65614;BME280;52283;49.292;10.572;2023-11-21T08:08:44;96027.56;;;7.34;100.00
65614;BME280;52283;49.292;10.572;2023-11-21T08:11:11;96026.72;;;7.28;100.00
65614;BME280;52283;49.292;10.572;2023-11-21T08:13:38;96032.72;;;7.21;100.00
65614;BME280;52283;49.292;10.572;2023-11-21T08:16:05;96029.47;;;7.23;100.00
65614;BME280;52283;49.292;10.572;2023-11-21T08:18:32;96032.66;;;7.10;100.00
65614;BME280;52283;49.292;10.572;2023-11-21T08:20:59;96018.75;;;7.10;100.00
65614;BME280;52283;49.292;10.572;2023-11-21T08:23:27;96030.56;;;7.05;100.00
65614;BME280;52283;49.292;10.572;2023-11-21T08:25:54;96030.13;;;7.12;100.00
65614;BME280;52283;49.292;10.572;2023-11-21T08:28:21;96022.56;;;7.13;100.00
65614;BME280;52283;49.292;10.572;2023-11-21T08:30:48;96018.78;;;7.16;100.00
65614;BME280;52283;49.292;10.572;2023-11-21T08:33:15;96023.81;;;7.12;100.00
65614;BME280;52283;49.292;10.572;2023-11-21T08:35:41;96029.78;;;7.04;100.00
65614;BME280;52283;49.292;10.572;2023-11-21T08:38:07;96029.91;;;7.16;100.00
65614;BME280;52283;49.292;10.572;2023-11-21T08:40:36;96027.53;;;7.29;100.00
65614;BME280;52283;49.292;10.572;2023-11-21T08:43:03;96032.03;;;7.26;100.00
65614;BME280;52283;49.292;10.572;2023-11-21T08:45:29;96038.06;;;7.25;100.00
65614;BME280;52283;49.292;10.572;2023-11-21T08:47:56;96049.91;;;7.20;100.00
65614;BME280;52283;49.292;10.572;2023-11-21T08:50:22;96038.84;;;7.25;100.00
65614;BME280;52283;49.292;10.572;2023-11-21T08:52:49;96052.84;;;7.37;100.00
65614;BME280;52283;49.292;10.572;2023-11-21T08:55:16;96052.44;;;7.49;100.00
65614;BME280;52283;49.292;10.572;2023-11-21T08:57:46;96048.22;;;7.59;100.00
65614;BME280;52283;49.292;10.572;2023-11-21T09:00:13;96058.19;;;7.40;100.00
65614;BME280;52283;49.292;10.572;2023-11-21T09:02:42;96056.13;;;7.35;100.00
65614;BME280;52283;49.292;10.572;2023-11-21T09:05:09;96060.41;;;7.36;100.00
65614;BME280;52283;49.292;10.572;2023-11-21T09:07:36;96062.28;;;7.76;100.00
65614;BME280;52283;49.292;10.572;2023-11-21T09:10:04;96069.59;;;7.48;100.00
65614;BME280;52283;49.292;10.572;2023-11-21T09:12:32;96067.53;;;7.43;100.00
65614;BME280;52283;49.292;10.572;2023-11-21T09:15:01;96067.00;;;7.39;100.00
65614;BME280;52283;49.292;10.572;2023-11-21T09:17:29;96060.22;;;7.45;100.00
65614;BME280;52283;49.292;10.572;2023-11-21T09:19:56;96067.47;;;7.63;100.00
65614;BME280;52283;49.292;10.572;2023-11-21T09:22:23;96074.06;;;7.65;100.00
65614;BME280;52283;49.292;10.572;2023-11-21T09:24:50;96074.50;;;7.58;100.00
65614;BME280;52283;49.292;10.572;2023-11-21T09:27:16;96083.34;;;7.57;100.00
65614;BME280;52283;49.292;10.572;2023-11-21T09:29:43;96089.06;;;7.22;100.00
65614;BME280;52283;49.292;10.572;2023-11-21T09:32:11;96083.56;;;7.53;100.00
65614;BME280;52283;49.292;10.572;2023-11-21T09:34:39;96088.88;;;7.51;100.00
65614;BME280;52283;49.292;10.572;2023-11-21T09:37:07;96094.97;;;7.55;100.00
65614;BME280;52283;49.292;10.572;2023-11-21T09:39:34;96096.06;;;7.38;100.00
65614;BME280;52283;49.292;10.572;2023-11-21T09:42:04;96093.13;;;7.78;100.00
65614;BME280;52283;49.292;10.572;2023-11-21T09:44:35;96091.66;;;7.51;100.00
65614;BME280;52283;49.292;10.572;2023-11-21T09:47:05;96094.16;;;7.81;100.00
65614;BME280;52283;49.292;10.572;2023-11-21T09:49:38;96098.56;;;7.93;100.00
65614;BME280;52283;49.292;10.572;2023-11-21T09:52:07;96096.94;;;8.12;100.00
65614;BME280;52283;49.292;10.572;2023-11-21T09:54:35;96101.44;;;8.10;100.00
65614;BME280;52283;49.292;10.572;2023-11-21T09:57:02;96099.38;;;7.99;100.00
65614;BME280;52283;49.292;10.572;2023-11-21T09:59:31;96092.94;;;8.19;100.00
65614;BME280;52283;49.292;10.572;2023-11-21T10:01:58;96093.94;;;8.21;100.00
65614;BME280;52283;49.292;10.572;2023-11-21T10:04:25;96095.84;;;8.04;100.00
65614;BME280;52283;49.292;10.572;2023-11-21T10:06:54;96098.00;;;7.89;100.00
65614;BME280;52283;49.292;10.572;2023-11-21T10:09:21;96099.94;;;8.09;100.00
65614;BME280;52283;49.292;10.572;2023-11-21T10:11:49;96106.34;;;8.20;100.00
65614;BME280;52283;49.292;10.572;2023-11-21T10:14:18;96094.75;;;8.27;100.00
65614;BME280;52283;49.292;10.572;2023-11-21T10:16:47;96098.53;;;8.24;100.00
65614;BME280;52283;49.292;10.572;2023-11-21T10:19:15;96099.38;;;8.36;100.00
65614;BME280;52283;49.292;10.572;2023-11-21T10:21:42;96112.31;;;8.39;100.00
65614;BME280;52283;49.292;10.572;2023-11-21T10:24:10;96110.38;;;8.19;100.00
65614;BME280;52283;49.292;10.572;2023-11-21T10:26:38;96103.25;;;8.13;100.00
65614;BME280;52283;49.292;10.572;2023-11-21T10:29:04;96106.56;;;8.17;100.00
65614;BME280;52283;49.292;10.572;2023-11-21T10:31:31;96110.16;;;8.23;100.00
65614;BME280;52283;49.292;10.572;2023-11-21T10:34:12;96108.91;;;8.30;100.00
65614;BME280;52283;49.292;10.572;2023-11-21T10:36:38;96108.63;;;8.22;100.00
65614;BME280;52283;49.292;10.572;2023-11-21T10:39:05;96108.06;;;8.12;100.00
65614;BME280;52283;49.292;10.572;2023-11-21T10:41:33;96110.28;;;8.08;100.00
65614;BME280;52283;49.292;10.572;2023-11-21T10:44:00;96102.81;;;7.88;100.00
65614;BME280;52283;49.292;10.572;2023-11-21T10:46:29;96107.19;;;7.95;100.00
65614;BME280;52283;49.292;10.572;2023-11-21T10:48:57;96108.09;;;7.86;100.00
65614;BME280;52283;49.292;10.572;2023-11-21T10:51:23;96100.63;;;7.98;100.00
65614;BME280;52283;49.292;10.572;2023-11-21T10:53:51;96107.31;;;7.80;100.00
65614;BME280;52283;49.292;10.572;2023-11-21T10:56:18;96117.72;;;7.85;100.00
65614;BME280;52283;49.292;10.572;2023-11-21T10:58:49;96113.31;;;8.05;100.00
65614;BME280;52283;49.292;10.572;2023-11-21T11:01:17;96124.22;;;8.08;100.00
65614;BME280;52283;49.292;10.572;2023-11-21T11:03:46;96111.97;;;8.32;100.00
65614;BME280;52283;49.292;10.572;2023-11-21T11:06:13;96114.28;;;8.33;100.00
65614;BME280;52283;49.292;10.572;2023-11-21T11:08:40;96107.00;;;8.41;100.00
65614;BME280;52283;49.292;10.572;2023-11-21T11:11:07;96116.88;;;8.42;100.00
65614;BME280;52283;49.292;10.572;2023-11-21T11:13:35;96115.88;;;8.45;100.00
65614;BME280;52283;49.292;10.572;2023-11-21T11:16:05;96116.63;;;8.40;100.00
65614;BME280;52283;49.292;10.572;2023-11-21T11:18:35;96110.38;;;8.19;100.00
65614;BME280;52283;49.292;10.572;2023-11-21T11:21:12;96111.94;;;8.26;100.00
65614;BME280;52283;49.292;10.572;2023-11-21T11:23:55;96114.34;;;8.44;100.00
65614;BME280;52283;49.292;10.572;2023-11-21T11:26:35;96121.56;;;8.62;100.00
65614;BME280;52283;49.292;10.572;2023-11-21T11:29:08;96120.78;;;8.62;100.00
65614;BME280;52283;49.292;10.572;2023-11-21T11:31:55;96118.78;;;8.31;100.00
65614;BME280;52283;49.292;10.572;2023-11-21T11:34:29;96132.31;;;8.12;100.00
65614;BME280;52283;49.292;10.572;2023-11-21T11:36:59;96123.22;;;8.43;100.00
65614;BME280;52283;49.292;10.572;2023-11-21T11:39:28;96122.03;;;8.55;100.00
65614;BME280;52283;49.292;10.572;2023-11-21T11:41:55;96123.34;;;8.65;100.00
65614;BME280;52283;49.292;10.572;2023-11-21T11:44:47;96131.66;;;8.54;100.00
65614;BME280;52283;49.292;10.572;2023-11-21T11:47:20;96122.94;;;8.41;100.00
65614;BME280;52283;49.292;10.572;2023-11-21T11:49:57;96123.13;;;8.74;100.00
65614;BME280;52283;49.292;10.572;2023-11-21T11:52:35;96127.25;;;8.90;100.00
65614;BME280;52283;49.292;10.572;2023-11-21T11:55:02;96128.38;;;8.55;100.00
65614;BME280;52283;49.292;10.572;2023-11-21T11:57:30;96135.22;;;8.60;100.00
65614;BME280;52283;49.292;10.572;2023-11-21T12:00:15;96131.53;;;8.80;100.00
65614;BME280;52283;49.292;10.572;2023-11-21T12:02:46;96128.50;;;8.83;100.00
65614;BME280;52283;49.292;10.572;2023-11-21T12:05:14;96140.66;;;8.86;100.00
65614;BME280;52283;49.292;10.572;2023-11-21T12:07:49;96135.06;;;8.75;100.00
65614;BME280;52283;49.292;10.572;2023-11-21T12:10:20;96138.59;;;8.75;100.00
65614;BME280;52283;49.292;10.572;2023-11-21T12:12:48;96141.09;;;8.73;100.00
65614;BME280;52283;49.292;10.572;2023-11-21T12:15:15;96146.66;;;8.68;100.00
65614;BME280;52283;49.292;10.572;2023-11-21T12:17:43;96143.25;;;8.52;100.00
65614;BME280;52283;49.292;10.572;2023-11-21T12:20:12;96141.53;;;8.55;100.00
65614;BME280;52283;49.292;10.572;2023-11-21T12:22:44;96140.44;;;8.47;100.00
65614;BME280;52283;49.292;10.572;2023-11-21T12:25:13;96149.13;;;8.54;100.00
65614;BME280;52283;49.292;10.572;2023-11-21T12:27:42;96147.66;;;8.65;100.00
65614;BME280;52283;49.292;10.572;2023-11-21T12:30:09;96145.84;;;8.56;100.00
65614;BME280;52283;49.292;10.572;2023-11-21T12:32:39;96147.31;;;8.51;100.00
65614;BME280;52283;49.292;10.572;2023-11-21T12:35:07;96150.03;;;8.40;100.00
65614;BME280;52283;49.292;10.572;2023-11-21T12:37:35;96144.78;;;8.53;100.00
65614;BME280;52283;49.292;10.572;2023-11-21T12:40:01;96145.06;;;8.55;100.00
65614;BME280;52283;49.292;10.572;2023-11-21T12:42:28;96156.22;;;8.55;100.00
65614;BME280;52283;49.292;10.572;2023-11-21T12:45:07;96159.25;;;8.58;100.00
65614;BME280;52283;49.292;10.572;2023-11-21T12:47:35;96156.50;;;8.63;100.00
65614;BME280;52283;49.292;10.572;2023-11-21T12:50:02;96163.56;;;8.59;100.00
65614;BME280;52283;49.292;10.572;2023-11-21T12:52:32;96158.75;;;8.59;100.00